This is the latest recevied weather packets stored in our database for station/object DL1GRJ-13. If no packets are shown the sender has not sent any weather packets the latest 1 day(s).
| Time | Temp. | Humidity | Pressure | Rain* | Wind** | Luminosity | Snow |
|---|---|---|---|---|---|---|---|
| 1777744854 | 22.22° C | 34% | 1019.5 hPa | - | - | - | - |
| 1777743054 | 25° C | 29% | 1019.3 hPa | - | - | - | - |
| 1777741254 | 25.56° C | 28% | 1019.5 hPa | - | - | - | - |
| 1777739453 | 26.67° C | 25% | 1019.8 hPa | - | - | - | - |
| 1777737653 | 26.67° C | 25% | 1020.1 hPa | - | - | - | - |
| 1777735853 | 23.89° C | 28% | 1020.4 hPa | - | - | - | - |
| 1777734053 | 23.89° C | 31% | 1020.7 hPa | - | - | - | - |
| 1777732252 | 23.89° C | 28% | 1021 hPa | - | - | - | - |
| 1777730452 | 23.89° C | 24% | 1021.3 hPa | - | - | - | - |
| 1777728652 | 26.67° C | 23% | 1021.5 hPa | - | - | - | - |
| 1777726852 | 25° C | 23% | 1021.7 hPa | - | - | - | - |
| 1777725052 | 26.11° C | 24% | 1022 hPa | - | - | - | - |
| 1777723252 | 25.56° C | 23% | 1022.4 hPa | - | - | - | - |
| 1777721452 | 26.11° C | 22% | 1022.6 hPa | - | - | - | - |
| 1777719651 | 23.89° C | 24% | 1022.9 hPa | - | - | - | - |
| 1777717851 | 22.78° C | 26% | 1023.1 hPa | - | - | - | - |
| 1777716051 | 20.56° C | 27% | 1023.5 hPa | - | - | - | - |
| 1777714251 | 18.89° C | 26% | 1023.8 hPa | - | - | - | - |
| 1777712451 | 18.33° C | 28% | 1023.9 hPa | - | - | - | - |
| 1777710651 | 17.78° C | 31% | 1024.1 hPa | - | - | - | - |
| 1777708851 | 16.67° C | 33% | 1023.9 hPa | - | - | - | - |
| 1777707050 | 15° C | 36% | 1024.2 hPa | - | - | - | - |
* Rain since midnight (hover to see other rain measurements)
** Current wind speed in m/s (hover to see current wind gust speed)